createdAt,value
2023-02-19T00:01:56.667Z,66.05
2023-02-19T00:05:19.756Z,65.58
2023-02-19T00:08:42.343Z,65.90
2023-02-19T00:12:05.104Z,65.11
2023-02-19T00:15:27.306Z,65.17
2023-02-19T00:18:51.858Z,65.40
2023-02-19T00:22:14.245Z,65.80
2023-02-19T00:25:38.043Z,65.80
2023-02-19T00:29:01.141Z,66.00
2023-02-19T00:32:24.335Z,65.99
2023-02-19T00:35:51.265Z,65.39
2023-02-19T00:39:15.775Z,65.22
2023-02-19T00:42:38.418Z,65.78
2023-02-19T00:46:01.517Z,65.60
2023-02-19T00:49:24.284Z,66.21
2023-02-19T00:52:50.626Z,66.64
2023-02-19T00:56:16.070Z,66.69
2023-02-19T00:59:38.742Z,66.96
2023-02-19T01:03:01.362Z,66.83
2023-02-19T01:06:24.328Z,67.05
2023-02-19T01:09:48.300Z,67.15
2023-02-19T01:13:11.066Z,67.44
2023-02-19T01:16:33.630Z,68.02
2023-02-19T01:19:57.015Z,68.16
2023-02-19T01:23:19.669Z,68.09
2023-02-19T01:26:44.290Z,67.70
2023-02-19T01:30:07.607Z,67.84
2023-02-19T01:33:30.826Z,67.24
2023-02-19T01:36:53.879Z,67.86
2023-02-19T01:40:20.280Z,67.48
2023-02-19T01:44:02.392Z,67.85
2023-02-19T01:47:24.865Z,68.28
2023-02-19T01:50:48.953Z,68.37
2023-02-19T01:54:12.292Z,69.63
2023-02-19T01:57:36.836Z,70.25
2023-02-19T02:01:00.903Z,70.71
2023-02-19T02:04:23.776Z,72.06
2023-02-19T02:08:03.512Z,72.84
2023-02-19T02:11:27.501Z,73.38
2023-02-19T02:14:50.166Z,73.44
2023-02-19T02:18:17.493Z,73.54
2023-02-19T02:21:52.866Z,73.93
2023-02-19T02:25:35.055Z,73.64
2023-02-19T02:29:24.349Z,73.29
2023-02-19T02:32:53.705Z,73.09
2023-02-19T02:36:18.744Z,72.42
2023-02-19T02:39:41.538Z,73.52
2023-02-19T02:43:04.762Z,72.73
2023-02-19T02:46:31.539Z,72.67
2023-02-19T02:50:06.117Z,73.19
2023-02-19T02:53:48.495Z,72.73
2023-02-19T02:57:15.061Z,73.25
2023-02-19T03:00:52.760Z,72.25
2023-02-19T03:04:20.059Z,72.59
2023-02-19T03:07:46.692Z,72.54
2023-02-19T03:11:28.876Z,72.78
2023-02-19T03:15:10.290Z,73.18
2023-02-19T03:18:53.032Z,72.43
2023-02-19T03:22:17.792Z,71.87
2023-02-19T03:26:01.707Z,71.97
2023-02-19T03:29:26.298Z,71.90
2023-02-19T03:32:53.202Z,71.99
2023-02-19T03:36:15.808Z,71.58
2023-02-19T03:39:44.523Z,71.77
2023-02-19T03:43:11.524Z,72.27
2023-02-19T03:46:43.338Z,73.37
2023-02-19T03:50:09.256Z,74.36
2023-02-19T03:53:35.868Z,75.52
2023-02-19T03:57:00.746Z,75.62
2023-02-19T04:00:26.456Z,76.13
2023-02-19T04:03:52.291Z,76.80
2023-02-19T04:07:14.766Z,76.65
2023-02-19T04:10:37.897Z,76.84
2023-02-19T04:14:02.619Z,76.60
2023-02-19T04:17:27.655Z,77.70
2023-02-19T04:20:50.462Z,77.02
2023-02-19T04:24:14.567Z,76.77
2023-02-19T04:27:37.566Z,76.62
2023-02-19T04:30:59.893Z,76.46
2023-02-19T04:34:23.639Z,77.22
2023-02-19T04:37:46.410Z,77.47
2023-02-19T04:41:09.779Z,77.50
2023-02-19T04:44:33.381Z,77.21
2023-02-19T04:47:55.849Z,77.38
2023-02-19T04:51:19.674Z,77.90
2023-02-19T04:54:42.108Z,78.57
2023-02-19T04:58:04.613Z,78.87
2023-02-19T05:01:26.999Z,78.72
2023-02-19T05:04:50.116Z,79.16
2023-02-19T05:08:14.027Z,79.44
2023-02-19T05:11:37.101Z,79.12
2023-02-19T05:14:59.600Z,80.44
2023-02-19T05:18:22.233Z,80.57
2023-02-19T05:21:44.741Z,81.08
2023-02-19T05:25:09.158Z,81.32
2023-02-19T05:28:31.440Z,81.29
2023-02-19T05:31:54.115Z,83.18
2023-02-19T05:35:19.200Z,82.54
2023-02-19T05:38:42.142Z,83.76
2023-02-19T05:42:06.612Z,83.26
2023-02-19T05:45:29.379Z,84.26
2023-02-19T05:48:52.498Z,84.42
2023-02-19T05:52:14.917Z,84.53
2023-02-19T05:55:37.632Z,84.46
2023-02-19T05:59:01.728Z,83.95
2023-02-19T06:02:24.113Z,83.66
2023-02-19T06:05:47.141Z,83.71
2023-02-19T06:09:09.571Z,83.32
2023-02-19T06:12:32.271Z,83.39
2023-02-19T06:15:56.341Z,84.04
2023-02-19T06:19:19.165Z,84.27
2023-02-19T06:22:41.276Z,84.42
2023-02-19T06:26:08.946Z,85.37
2023-02-19T06:29:32.608Z,86.00
2023-02-19T06:32:59.135Z,87.49
2023-02-19T06:36:22.005Z,87.70
2023-02-19T06:39:44.940Z,88.69
2023-02-19T06:43:07.311Z,87.51
2023-02-19T06:46:30.001Z,87.97
2023-02-19T06:49:54.076Z,88.42
2023-02-19T06:53:16.853Z,88.66
2023-02-19T06:56:40.795Z,88.07
2023-02-19T07:00:04.716Z,87.69
2023-02-19T07:03:27.428Z,88.04
2023-02-19T07:06:51.903Z,88.10
2023-02-19T07:10:14.538Z,87.71
2023-02-19T07:13:37.621Z,87.78
2023-02-19T07:16:59.898Z,88.06
2023-02-19T07:20:23.078Z,88.15
2023-02-19T07:23:46.940Z,88.30
2023-02-19T07:27:09.338Z,87.78
2023-02-19T07:30:31.860Z,87.88
2023-02-19T07:33:55.711Z,87.64
2023-02-19T07:37:18.078Z,87.70
2023-02-19T07:40:42.679Z,87.90
2023-02-19T07:44:05.626Z,87.22
2023-02-19T07:47:28.779Z,86.89
2023-02-19T07:50:54.621Z,86.46
2023-02-19T07:54:17.780Z,86.67
2023-02-19T07:57:41.788Z,86.25
2023-02-19T08:01:12.387Z,85.47
2023-02-19T08:04:35.857Z,85.67
2023-02-19T08:07:58.043Z,85.41
2023-02-19T08:11:38.307Z,84.70
2023-02-19T08:15:02.257Z,84.41
2023-02-19T08:18:26.574Z,84.20
2023-02-19T08:21:49.072Z,83.70
2023-02-19T08:25:11.706Z,83.19
2023-02-19T08:28:34.341Z,84.30
2023-02-19T08:31:58.343Z,87.16
2023-02-19T08:35:20.912Z,88.88
2023-02-19T08:38:43.652Z,92.08
2023-02-19T08:42:06.722Z,94.36
2023-02-19T08:45:29.837Z,95.96
2023-02-19T08:48:53.869Z,97.32
2023-02-19T08:52:16.247Z,99.87
2023-02-19T08:55:39.010Z,100.00
2023-02-19T08:59:01.660Z,100.00
2023-02-19T09:02:24.296Z,100.00
2023-02-19T09:05:49.002Z,100.00
2023-02-19T09:09:11.466Z,100.00
2023-02-19T09:12:34.421Z,100.00
2023-02-19T09:15:57.947Z,100.00
2023-02-19T09:19:20.849Z,100.00
2023-02-19T09:22:47.461Z,100.00
2023-02-19T09:26:11.592Z,100.00
2023-02-19T09:29:34.595Z,100.00
2023-02-19T09:32:57.144Z,100.00
2023-02-19T09:36:19.868Z,100.00
2023-02-19T09:39:44.393Z,100.00
2023-02-19T09:43:08.001Z,100.00
2023-02-19T09:46:32.736Z,100.00
2023-02-19T09:49:56.435Z,100.00
2023-02-19T09:53:21.081Z,100.00
2023-02-19T09:56:44.918Z,100.00
2023-02-19T10:00:14.296Z,100.00
2023-02-19T10:03:41.749Z,100.00
2023-02-19T10:07:04.889Z,100.00
2023-02-19T10:10:31.883Z,100.00
2023-02-19T10:13:57.318Z,100.00
2023-02-19T10:17:23.821Z,100.00
2023-02-19T10:20:47.266Z,100.00
2023-02-19T10:24:12.188Z,100.00
2023-02-19T10:27:35.695Z,96.13
2023-02-19T10:31:00.369Z,89.80
2023-02-19T10:34:23.705Z,83.85
2023-02-19T10:37:49.035Z,81.42
2023-02-19T10:41:14.518Z,83.62
2023-02-19T10:44:43.045Z,80.34
2023-02-19T10:48:07.564Z,77.99
2023-02-19T10:51:36.088Z,74.81
2023-02-19T10:54:59.883Z,76.73
2023-02-19T10:58:28.421Z,79.94
2023-02-19T11:01:58.682Z,81.55
2023-02-19T11:05:24.399Z,80.17
2023-02-19T11:08:51.587Z,77.84
2023-02-19T11:12:25.221Z,75.05
2023-02-19T11:15:52.419Z,72.00
2023-02-19T11:19:24.958Z,70.39
2023-02-19T11:22:49.944Z,67.41
2023-02-19T11:26:19.235Z,63.62
2023-02-19T11:29:42.226Z,63.78
2023-02-19T11:33:31.400Z,61.15
2023-02-19T11:37:08.635Z,61.46
2023-02-19T11:40:42.460Z,60.99
2023-02-19T11:44:14.275Z,59.23
2023-02-19T11:47:49.479Z,58.37
2023-02-19T11:51:42.973Z,57.46
2023-02-19T11:55:11.329Z,55.95
2023-02-19T11:59:03.970Z,51.35
2023-02-19T12:02:35.256Z,53.96
2023-02-19T12:06:19.754Z,51.74
2023-02-19T12:09:49.107Z,50.47
2023-02-19T12:13:15.932Z,49.99
2023-02-19T12:16:41.820Z,50.02
2023-02-19T12:20:13.387Z,49.17
2023-02-19T12:24:10.044Z,49.75
2023-02-19T12:27:43.858Z,49.75
2023-02-19T12:31:17.060Z,52.68
2023-02-19T12:35:17.859Z,51.56
2023-02-19T12:38:45.087Z,50.94
2023-02-19T12:42:16.135Z,49.42
2023-02-19T12:45:40.879Z,49.68
2023-02-19T12:49:08.723Z,47.69
2023-02-19T12:52:34.609Z,47.49
2023-02-19T12:56:00.014Z,46.47
2023-02-19T12:59:29.401Z,47.96
2023-02-19T13:02:53.414Z,47.96
2023-02-19T13:06:21.632Z,46.33
2023-02-19T13:09:47.698Z,49.66
2023-02-19T13:13:19.345Z,50.76
2023-02-19T13:16:44.205Z,53.56
2023-02-19T13:20:15.055Z,59.90
2023-02-19T13:24:05.946Z,64.50
2023-02-19T13:27:56.985Z,65.96
2023-02-19T13:31:35.595Z,70.71
2023-02-19T13:35:18.412Z,70.50
2023-02-19T13:38:43.126Z,68.92
2023-02-19T13:42:07.459Z,67.24
2023-02-19T13:45:34.847Z,67.28
2023-02-19T13:49:40.793Z,68.13
2023-02-19T13:53:09.451Z,71.13
2023-02-19T13:56:40.056Z,71.99
2023-02-19T14:00:03.852Z,70.98
2023-02-19T14:03:29.289Z,70.44
2023-02-19T14:07:39.384Z,71.30
2023-02-19T14:11:05.522Z,80.51
2023-02-19T14:14:30.765Z,85.99
2023-02-19T14:17:55.377Z,87.07
2023-02-19T14:21:20.446Z,91.15
2023-02-19T14:24:44.635Z,93.31
2023-02-19T14:28:20.799Z,91.79
2023-02-19T14:31:46.150Z,92.16
2023-02-19T14:35:19.758Z,90.67
2023-02-19T14:38:46.954Z,89.65
2023-02-19T14:42:16.322Z,91.42
2023-02-19T14:45:50.665Z,91.27
2023-02-19T14:49:16.253Z,90.79
2023-02-19T14:52:41.575Z,93.55
2023-02-19T14:56:06.033Z,94.12
2023-02-19T14:59:30.345Z,91.78
2023-02-19T15:02:59.914Z,90.79
2023-02-19T15:06:24.820Z,88.45
2023-02-19T15:09:50.713Z,86.29
2023-02-19T15:13:18.864Z,82.68
2023-02-19T15:16:43.151Z,85.00
2023-02-19T15:20:13.388Z,83.78
2023-02-19T15:23:37.982Z,84.15
2023-02-19T15:27:06.453Z,85.14
2023-02-19T15:30:34.350Z,85.47
2023-02-19T15:33:58.531Z,85.45
2023-02-19T15:37:24.931Z,86.10
2023-02-19T15:40:49.002Z,82.55
2023-02-19T15:44:21.025Z,82.51
2023-02-19T15:47:45.993Z,80.73
2023-02-19T15:51:11.332Z,80.95
2023-02-19T15:54:39.733Z,80.12
2023-02-19T15:58:06.637Z,81.39
2023-02-19T16:01:31.515Z,82.03
2023-02-19T16:04:56.197Z,81.27
2023-02-19T16:08:21.405Z,81.98
2023-02-19T16:11:52.176Z,80.26
2023-02-19T16:15:17.623Z,80.51
2023-02-19T16:18:46.016Z,80.14
2023-02-19T16:22:09.863Z,79.75
2023-02-19T16:25:37.781Z,80.56
2023-02-19T16:29:03.155Z,80.39
2023-02-19T16:32:27.170Z,79.13
2023-02-19T16:35:52.558Z,80.01
2023-02-19T16:39:29.621Z,79.67
2023-02-19T16:43:26.719Z,79.98
2023-02-19T16:46:55.499Z,79.36
2023-02-19T16:50:22.974Z,80.34
2023-02-19T16:53:47.899Z,80.32
2023-02-19T16:57:13.219Z,80.59
2023-02-19T17:00:37.910Z,81.01
2023-02-19T17:04:05.028Z,82.03
2023-02-19T17:07:30.101Z,78.54
2023-02-19T17:10:58.702Z,79.63
2023-02-19T17:14:24.049Z,80.63
2023-02-19T17:17:47.606Z,81.29
2023-02-19T17:21:15.922Z,81.45
2023-02-19T17:24:42.772Z,81.65
2023-02-19T17:28:08.121Z,80.99
2023-02-19T17:31:35.007Z,80.38
2023-02-19T17:34:59.850Z,80.23
2023-02-19T17:38:26.022Z,80.77
2023-02-19T17:41:50.462Z,81.45
2023-02-19T17:45:20.220Z,79.68
2023-02-19T17:48:45.326Z,80.65
2023-02-19T17:52:09.404Z,80.30
2023-02-19T17:55:41.351Z,79.96
2023-02-19T17:59:09.334Z,78.68
2023-02-19T18:02:34.639Z,78.81
2023-02-19T18:05:59.157Z,78.12
2023-02-19T18:09:23.464Z,78.55
2023-02-19T18:12:50.560Z,77.56
2023-02-19T18:16:16.298Z,77.89
2023-02-19T18:19:41.787Z,76.27
2023-02-19T18:23:06.619Z,74.74
2023-02-19T18:26:34.054Z,75.70
2023-02-19T18:30:01.168Z,75.37
2023-02-19T18:33:26.061Z,75.84
2023-02-19T18:36:50.590Z,75.83
2023-02-19T18:40:16.266Z,76.04
2023-02-19T18:43:42.547Z,76.58
2023-02-19T18:47:08.625Z,77.29
2023-02-19T18:50:33.997Z,77.38
2023-02-19T18:54:04.626Z,78.32
2023-02-19T18:57:30.473Z,79.32
2023-02-19T19:00:55.358Z,79.86
2023-02-19T19:04:22.107Z,79.18
2023-02-19T19:07:47.207Z,79.97
2023-02-19T19:11:13.504Z,80.53
2023-02-19T19:14:38.879Z,81.18
2023-02-19T19:18:03.430Z,80.86
2023-02-19T19:21:29.974Z,80.26
2023-02-19T19:24:56.855Z,80.98
2023-02-19T19:28:21.786Z,81.51
2023-02-19T19:31:46.667Z,82.22
2023-02-19T19:35:13.849Z,82.00
2023-02-19T19:38:41.612Z,81.23
2023-02-19T19:42:09.278Z,80.48
2023-02-19T19:45:34.210Z,80.40
2023-02-19T19:49:00.356Z,80.54
2023-02-19T19:52:26.548Z,80.42
2023-02-19T19:55:54.703Z,80.09
2023-02-19T19:59:19.215Z,80.17
2023-02-19T20:02:43.802Z,80.74
2023-02-19T20:06:12.367Z,80.63
2023-02-19T20:09:37.401Z,80.80
2023-02-19T20:13:05.906Z,80.42
2023-02-19T20:16:31.844Z,80.82
2023-02-19T20:19:57.062Z,80.84
2023-02-19T20:23:27.361Z,81.43
2023-02-19T20:26:52.084Z,81.11
2023-02-19T20:30:18.873Z,81.50
2023-02-19T20:33:42.643Z,81.65
2023-02-19T20:37:07.309Z,82.00
2023-02-19T20:40:33.004Z,82.72
2023-02-19T20:43:57.656Z,83.03
2023-02-19T20:47:24.313Z,82.30
2023-02-19T20:50:47.729Z,78.75
2023-02-19T20:54:13.260Z,79.50
2023-02-19T20:57:38.156Z,76.66
2023-02-19T21:01:02.872Z,75.68
2023-02-19T21:04:28.639Z,74.71
2023-02-19T21:07:56.937Z,72.65
2023-02-19T21:11:20.733Z,72.85
2023-02-19T21:14:47.699Z,72.65
2023-02-19T21:18:11.594Z,72.71
2023-02-19T21:21:39.618Z,72.60
2023-02-19T21:25:04.741Z,72.65
2023-02-19T21:28:29.351Z,72.19
2023-02-19T21:31:55.752Z,72.82
2023-02-19T21:35:19.373Z,71.51
2023-02-19T21:38:46.812Z,70.36
2023-02-19T21:42:10.976Z,68.88
2023-02-19T21:45:36.590Z,68.28
2023-02-19T21:49:00.145Z,67.96
2023-02-19T21:52:23.476Z,67.62
2023-02-19T21:55:58.280Z,66.65
2023-02-19T21:59:21.234Z,66.34
2023-02-19T22:02:44.469Z,65.37
2023-02-19T22:06:07.862Z,64.61
2023-02-19T22:09:30.133Z,63.91
2023-02-19T22:12:54.545Z,64.72
2023-02-19T22:16:17.131Z,63.94
2023-02-19T22:19:42.920Z,64.49
2023-02-19T22:23:05.343Z,64.84
2023-02-19T22:26:28.988Z,63.90
2023-02-19T22:29:52.561Z,62.71
2023-02-19T22:33:15.145Z,62.74
2023-02-19T22:36:38.351Z,61.63
2023-02-19T22:40:00.941Z,61.57
2023-02-19T22:43:23.398Z,61.59
2023-02-19T22:46:52.173Z,60.82
2023-02-19T22:50:18.572Z,61.19
2023-02-19T22:53:45.177Z,61.08
2023-02-19T22:57:07.883Z,61.40
2023-02-19T23:00:30.806Z,62.24
2023-02-19T23:03:55.566Z,62.74
2023-02-19T23:07:18.389Z,62.94
2023-02-19T23:10:41.095Z,62.66
2023-02-19T23:14:03.724Z,63.36
2023-02-19T23:17:26.174Z,64.26
2023-02-19T23:20:50.651Z,63.84
2023-02-19T23:24:12.986Z,63.88
2023-02-19T23:27:36.068Z,64.08
2023-02-19T23:30:58.570Z,64.81
2023-02-19T23:34:21.338Z,64.57
2023-02-19T23:37:45.220Z,64.49
2023-02-19T23:41:10.150Z,64.50
2023-02-19T23:44:32.717Z,64.94
2023-02-19T23:47:55.638Z,64.62
2023-02-19T23:51:18.064Z,65.61
2023-02-19T23:54:42.317Z,64.95
2023-02-19T23:58:04.491Z,65.06
